createdAt,value
2023-01-07T00:02:53.983Z,11.50
2023-01-07T00:07:59.712Z,11.50
2023-01-07T00:13:04.058Z,11.50
2023-01-07T00:18:07.786Z,11.50
2023-01-07T00:23:12.876Z,11.40
2023-01-07T00:28:16.578Z,11.40
2023-01-07T00:33:22.455Z,11.40
2023-01-07T00:38:27.579Z,11.40
2023-01-07T00:43:31.581Z,11.40
2023-01-07T00:48:35.414Z,11.30
2023-01-07T00:53:40.921Z,11.30
2023-01-07T00:58:44.889Z,11.30
2023-01-07T01:03:48.809Z,11.30
2023-01-07T01:08:54.100Z,11.30
2023-01-07T01:13:57.825Z,11.20
2023-01-07T01:19:01.592Z,11.20
2023-01-07T01:24:07.319Z,11.10
2023-01-07T01:29:11.355Z,11.10
2023-01-07T01:34:15.762Z,11.10
2023-01-07T01:39:21.484Z,11.10
2023-01-07T01:44:48.248Z,11.10
2023-01-07T01:50:02.091Z,11.10
2023-01-07T01:55:14.757Z,11.00
2023-01-07T02:00:18.678Z,11.00
2023-01-07T02:05:30.102Z,11.00
2023-01-07T02:10:35.333Z,11.00
2023-01-07T02:15:52.028Z,10.90
2023-01-07T02:21:04.482Z,10.90
2023-01-07T02:26:52.933Z,10.90
2023-01-07T02:32:26.450Z,10.80
2023-01-07T02:37:40.427Z,10.80
2023-01-07T02:42:55.158Z,10.80
2023-01-07T02:48:05.027Z,10.70
2023-01-07T02:53:10.737Z,10.80
2023-01-07T02:58:44.208Z,10.80
2023-01-07T03:04:05.467Z,10.80
2023-01-07T03:09:15.093Z,10.80
2023-01-07T03:14:21.444Z,10.80
2023-01-07T03:19:31.687Z,10.80
2023-01-07T03:24:35.528Z,10.70
2023-01-07T03:29:39.439Z,10.80
2023-01-07T03:34:46.156Z,10.80
2023-01-07T03:39:52.062Z,10.80
2023-01-07T03:44:56.330Z,10.80
2023-01-07T03:50:03.461Z,10.80
2023-01-07T03:55:08.099Z,10.80
2023-01-07T04:00:14.547Z,10.80
2023-01-07T04:05:19.986Z,10.80
2023-01-07T04:10:25.185Z,10.90
2023-01-07T04:15:29.836Z,10.90
2023-01-07T04:20:35.720Z,10.90
2023-01-07T04:25:40.575Z,10.90
2023-01-07T04:30:46.479Z,10.90
2023-01-07T04:35:51.654Z,10.90
2023-01-07T04:40:56.015Z,10.80
2023-01-07T04:46:00.440Z,10.80
2023-01-07T04:51:06.706Z,10.80
2023-01-07T04:56:10.566Z,10.80
2023-01-07T05:01:15.739Z,10.80
2023-01-07T05:06:21.532Z,10.80
2023-01-07T05:11:25.507Z,10.80
2023-01-07T05:16:32.668Z,10.90
2023-01-07T05:21:41.998Z,10.90
2023-01-07T05:26:45.987Z,10.90
2023-01-07T05:31:51.181Z,10.90
2023-01-07T05:36:56.457Z,10.90
2023-01-07T05:42:01.024Z,10.90
2023-01-07T05:47:05.872Z,11.00
2023-01-07T05:52:11.141Z,10.90
2023-01-07T05:57:14.906Z,11.00
2023-01-07T06:02:18.692Z,10.90
2023-01-07T06:07:23.988Z,10.90
2023-01-07T06:12:27.775Z,10.90
2023-01-07T06:17:31.507Z,11.00
2023-01-07T06:22:37.034Z,10.90
2023-01-07T06:27:41.819Z,11.00
2023-01-07T06:32:45.950Z,11.00
2023-01-07T06:37:51.306Z,10.90
2023-01-07T06:42:55.096Z,10.90
2023-01-07T06:47:58.883Z,10.90
2023-01-07T06:53:04.170Z,10.90
2023-01-07T06:58:07.966Z,10.90
2023-01-07T07:03:11.735Z,10.90
2023-01-07T07:08:17.901Z,10.90
2023-01-07T07:13:21.845Z,10.90
2023-01-07T07:18:26.964Z,10.80
2023-01-07T07:23:32.159Z,10.80
2023-01-07T07:28:35.865Z,10.80
2023-01-07T07:33:39.605Z,10.70
2023-01-07T07:38:44.675Z,10.70
2023-01-07T07:43:48.393Z,10.70
2023-01-07T07:48:52.406Z,10.70
2023-01-07T07:53:57.503Z,10.70
2023-01-07T07:59:01.217Z,10.60
2023-01-07T08:04:04.999Z,10.60
2023-01-07T08:09:10.176Z,10.60
2023-01-07T08:14:13.910Z,10.60
2023-01-07T08:19:18.008Z,10.60
2023-01-07T08:24:25.137Z,10.70
2023-01-07T08:29:28.814Z,10.70
2023-01-07T08:34:32.500Z,10.70
2023-01-07T08:39:37.559Z,10.70
2023-01-07T08:44:41.262Z,10.80
2023-01-07T08:49:44.891Z,10.80
2023-01-07T08:54:50.175Z,10.80
2023-01-07T08:59:54.171Z,10.80
2023-01-07T09:04:58.367Z,10.90
2023-01-07T09:10:03.661Z,10.90
2023-01-07T09:15:08.875Z,11.00
2023-01-07T09:20:12.837Z,11.00
2023-01-07T09:25:18.086Z,11.00
2023-01-07T09:30:21.826Z,11.00
2023-01-07T09:35:25.549Z,11.10
2023-01-07T09:40:33.995Z,11.10
2023-01-07T09:45:41.897Z,11.20
2023-01-07T09:50:51.836Z,11.30
2023-01-07T09:56:11.396Z,11.40
2023-01-07T10:01:27.828Z,11.40
2023-01-07T10:06:43.825Z,11.50
2023-01-07T10:12:00.437Z,11.60
2023-01-07T10:17:12.569Z,11.70
2023-01-07T10:22:21.072Z,11.80
2023-01-07T10:27:32.396Z,11.90
2023-01-07T10:32:38.009Z,11.90
2023-01-07T10:37:43.543Z,11.90
2023-01-07T10:42:55.639Z,12.00
2023-01-07T10:48:30.882Z,12.00
2023-01-07T10:53:46.056Z,12.00
2023-01-07T10:58:51.920Z,12.10
2023-01-07T11:03:58.546Z,12.10
2023-01-07T11:09:05.847Z,12.20
2023-01-07T11:14:16.876Z,12.20
2023-01-07T11:19:23.837Z,12.20
2023-01-07T11:24:33.371Z,12.30
2023-01-07T11:29:43.924Z,12.30
2023-01-07T11:34:56.395Z,12.30
2023-01-07T11:40:01.624Z,12.20
2023-01-07T11:45:17.583Z,12.30
2023-01-07T11:50:31.496Z,12.30
2023-01-07T11:55:35.219Z,12.30
2023-01-07T12:00:40.282Z,12.40
2023-01-07T12:05:45.907Z,12.50
2023-01-07T12:10:56.385Z,12.40
2023-01-07T12:16:03.929Z,12.50
2023-01-07T12:21:33.683Z,12.60
2023-01-07T12:26:44.007Z,12.70
2023-01-07T12:32:06.459Z,12.70
2023-01-07T12:37:20.351Z,12.80
2023-01-07T12:42:28.031Z,12.70
2023-01-07T12:47:37.529Z,12.80
2023-01-07T12:52:45.083Z,12.70
2023-01-07T12:58:00.265Z,12.70
2023-01-07T13:03:18.807Z,12.60
2023-01-07T13:08:30.649Z,12.50
2023-01-07T13:13:40.538Z,12.50
2023-01-07T13:18:45.708Z,12.50
2023-01-07T13:24:07.265Z,12.40
2023-01-07T13:29:29.671Z,12.40
2023-01-07T13:34:46.218Z,12.40
2023-01-07T13:40:16.874Z,12.40
2023-01-07T13:45:23.992Z,12.40
2023-01-07T13:50:32.899Z,12.40
2023-01-07T13:55:39.537Z,12.40
2023-01-07T14:00:48.130Z,12.40
2023-01-07T14:06:38.733Z,12.40
2023-01-07T14:12:13.149Z,12.40
2023-01-07T14:17:27.079Z,12.30
2023-01-07T14:22:43.163Z,12.30
2023-01-07T14:27:57.787Z,12.30
2023-01-07T14:33:03.425Z,12.30
2023-01-07T14:38:42.095Z,12.20
2023-01-07T14:44:03.141Z,12.20
2023-01-07T14:49:46.923Z,12.20
2023-01-07T14:55:22.085Z,12.10
2023-01-07T15:00:55.546Z,12.10
2023-01-07T15:06:25.657Z,12.10
2023-01-07T15:11:48.056Z,12.00
2023-01-07T15:16:54.617Z,12.00
2023-01-07T15:22:08.186Z,12.00
2023-01-07T15:27:18.659Z,11.90
2023-01-07T15:32:34.236Z,11.90
2023-01-07T15:37:37.986Z,11.90
2023-01-07T15:42:44.118Z,11.80
2023-01-07T15:47:49.809Z,11.80
2023-01-07T15:52:55.439Z,11.80
2023-01-07T15:58:04.643Z,11.70
2023-01-07T16:03:15.668Z,11.70
2023-01-07T16:08:28.362Z,11.60
2023-01-07T16:13:32.861Z,11.60
2023-01-07T16:18:37.977Z,11.50
2023-01-07T16:23:42.263Z,11.50
2023-01-07T16:28:48.681Z,11.50
2023-01-07T16:33:57.880Z,11.40
2023-01-07T16:39:08.671Z,11.40
2023-01-07T16:44:57.536Z,11.40
2023-01-07T16:50:32.021Z,11.30
2023-01-07T16:55:50.038Z,11.20
2023-01-07T17:00:55.655Z,11.10
2023-01-07T17:06:08.527Z,11.00
2023-01-07T17:11:22.188Z,10.90
2023-01-07T17:16:32.336Z,10.80
2023-01-07T17:21:45.138Z,10.80
2023-01-07T17:26:49.722Z,10.80
2023-01-07T17:31:53.430Z,10.70
2023-01-07T17:36:58.610Z,10.70
2023-01-07T17:42:19.701Z,10.60
2023-01-07T17:47:23.336Z,10.60
2023-01-07T17:52:28.869Z,10.60
2023-01-07T17:57:32.643Z,10.60
2023-01-07T18:02:36.338Z,10.50
2023-01-07T18:07:41.925Z,10.50
2023-01-07T18:12:45.846Z,10.50
2023-01-07T18:17:49.508Z,10.50
2023-01-07T18:22:54.626Z,10.50
2023-01-07T18:27:58.324Z,10.40
2023-01-07T18:33:01.982Z,10.40
2023-01-07T18:38:07.096Z,10.40
2023-01-07T18:43:13.313Z,10.40
2023-01-07T18:48:18.724Z,10.40
2023-01-07T18:53:26.683Z,10.50
2023-01-07T18:58:30.516Z,10.50
2023-01-07T19:03:34.353Z,10.50
2023-01-07T19:08:39.809Z,10.50
2023-01-07T19:13:43.828Z,10.60
2023-01-07T19:18:47.545Z,10.60
2023-01-07T19:23:52.637Z,10.70
2023-01-07T19:28:56.559Z,10.70
2023-01-07T19:34:00.212Z,10.70
2023-01-07T19:39:05.401Z,10.70
2023-01-07T19:44:09.183Z,10.70
2023-01-07T19:49:14.086Z,10.80
2023-01-07T19:54:19.138Z,10.80
2023-01-07T19:59:23.569Z,10.80
2023-01-07T20:04:27.500Z,10.80
2023-01-07T20:09:32.935Z,10.80
2023-01-07T20:14:36.669Z,10.80
2023-01-07T20:19:40.385Z,10.80
2023-01-07T20:24:46.781Z,10.80
2023-01-07T20:29:50.547Z,10.80
2023-01-07T20:34:54.273Z,10.90
2023-01-07T20:39:59.466Z,10.90
2023-01-07T20:45:03.248Z,10.90
2023-01-07T20:50:08.360Z,10.90
2023-01-07T20:55:13.532Z,10.90
2023-01-07T21:00:17.623Z,10.90
2023-01-07T21:05:23.001Z,10.90
2023-01-07T21:10:28.220Z,10.90
2023-01-07T21:15:32.639Z,10.90
2023-01-07T21:20:36.429Z,10.90
2023-01-07T21:25:41.570Z,10.90
2023-01-07T21:30:45.311Z,10.90
2023-01-07T21:35:49.031Z,10.90
2023-01-07T21:40:54.103Z,10.90
2023-01-07T21:46:00.709Z,10.90
2023-01-07T21:51:05.827Z,10.90
2023-01-07T21:56:12.424Z,10.90
2023-01-07T22:01:17.289Z,10.90
2023-01-07T22:06:22.976Z,10.90
2023-01-07T22:11:28.316Z,10.90
2023-01-07T22:16:33.539Z,10.90
2023-01-07T22:21:37.282Z,10.90
2023-01-07T22:26:42.979Z,10.80
2023-01-07T22:31:49.031Z,10.90
2023-01-07T22:36:58.015Z,10.90
2023-01-07T22:42:08.408Z,10.90
2023-01-07T22:47:16.223Z,10.90
2023-01-07T22:52:19.975Z,10.90
2023-01-07T22:57:25.321Z,10.90
2023-01-07T23:02:29.514Z,11.00
2023-01-07T23:07:33.227Z,11.00
2023-01-07T23:12:38.364Z,11.00
2023-01-07T23:17:42.657Z,11.00
2023-01-07T23:22:46.393Z,11.00
2023-01-07T23:27:51.434Z,11.00
2023-01-07T23:32:55.123Z,11.00
2023-01-07T23:38:00.353Z,10.90
2023-01-07T23:43:05.651Z,10.90
2023-01-07T23:48:09.329Z,10.90
2023-01-07T23:53:13.107Z,10.90
2023-01-07T23:58:18.233Z,10.90
